createdAt,value
2023-03-12T00:02:08.551Z,2.10
2023-03-12T00:04:36.691Z,2.40
2023-03-12T00:07:06.554Z,1.30
2023-03-12T00:09:37.039Z,1.00
2023-03-12T00:12:05.903Z,0.90
2023-03-12T00:14:32.895Z,0.80
2023-03-12T00:16:59.809Z,1.30
2023-03-12T00:19:26.778Z,0.40
2023-03-12T00:21:53.663Z,1.60
2023-03-12T00:24:20.580Z,2.00
2023-03-12T00:26:47.421Z,0.50
2023-03-12T00:29:14.418Z,0.50
2023-03-12T00:31:41.398Z,0.50
2023-03-12T00:34:09.300Z,1.70
2023-03-12T00:36:36.159Z,0.50
2023-03-12T00:39:03.900Z,2.10
2023-03-12T00:41:32.142Z,0.30
2023-03-12T00:43:59.515Z,0.50
2023-03-12T00:46:26.596Z,0.40
2023-03-12T00:48:53.474Z,0.40
2023-03-12T00:51:20.421Z,0.30
2023-03-12T00:53:47.449Z,0.30
2023-03-12T00:56:14.699Z,0.40
2023-03-12T00:58:42.924Z,0.50
2023-03-12T01:01:10.502Z,0.40
2023-03-12T01:03:37.853Z,0.40
2023-03-12T01:06:06.362Z,0.40
2023-03-12T01:08:33.348Z,0.30
2023-03-12T01:11:00.590Z,0.60
2023-03-12T01:13:27.754Z,0.60
2023-03-12T01:15:55.002Z,0.30
2023-03-12T01:18:22.082Z,1.50
2023-03-12T01:20:49.003Z,0.70
2023-03-12T01:23:16.431Z,0.70
2023-03-12T01:25:43.619Z,0.40
2023-03-12T01:28:10.463Z,0.30
2023-03-12T01:30:37.361Z,0.60
2023-03-12T01:33:05.250Z,0.40
2023-03-12T01:35:36.607Z,0.70
2023-03-12T01:38:03.434Z,0.40
2023-03-12T01:40:30.472Z,0.30
2023-03-12T01:42:57.800Z,0.90
2023-03-12T01:46:03.076Z,0.60
2023-03-12T01:48:38.550Z,0.20
2023-03-12T01:51:05.557Z,1.30
2023-03-12T01:53:32.884Z,1.00
2023-03-12T01:55:59.914Z,0.40
2023-03-12T01:58:27.488Z,1.00
2023-03-12T02:00:54.895Z,0.80
2023-03-12T02:03:23.772Z,0.90
2023-03-12T02:05:53.701Z,2.20
2023-03-12T02:08:20.808Z,0.90
2023-03-12T02:10:50.304Z,0.60
2023-03-12T02:13:18.519Z,1.60
2023-03-12T02:15:47.310Z,0.80
2023-03-12T02:18:17.573Z,0.40
2023-03-12T02:20:57.158Z,0.80
2023-03-12T02:23:42.795Z,1.50
2023-03-12T02:26:10.364Z,0.90
2023-03-12T02:28:42.832Z,0.80
2023-03-12T02:31:14.830Z,0.90
2023-03-12T02:33:42.893Z,0.80
2023-03-12T02:36:10.084Z,0.80
2023-03-12T02:38:45.756Z,0.90
2023-03-12T02:41:22.027Z,2.10
2023-03-12T02:44:08.640Z,1.20
2023-03-12T02:46:41.417Z,1.30
2023-03-12T02:49:15.049Z,2.20
2023-03-12T02:51:42.476Z,1.20
2023-03-12T02:54:09.566Z,1.20
2023-03-12T02:56:37.322Z,2.20
2023-03-12T02:59:05.323Z,0.90
2023-03-12T03:01:35.134Z,1.30
2023-03-12T03:04:05.433Z,1.20
2023-03-12T03:06:32.650Z,0.80
2023-03-12T03:08:59.800Z,1.70
2023-03-12T03:11:27.315Z,1.20
2023-03-12T03:13:55.528Z,1.20
2023-03-12T03:16:23.751Z,1.00
2023-03-12T03:18:53.392Z,1.70
2023-03-12T03:21:20.547Z,2.10
2023-03-12T03:23:50.678Z,1.70
2023-03-12T03:26:22.223Z,2.00
2023-03-12T03:28:49.677Z,1.50
2023-03-12T03:31:16.971Z,0.90
2023-03-12T03:33:44.121Z,1.60
2023-03-12T03:36:15.146Z,1.70
2023-03-12T03:38:51.022Z,1.60
2023-03-12T03:41:19.335Z,0.70
2023-03-12T03:43:46.663Z,1.50
2023-03-12T03:46:14.268Z,1.00
2023-03-12T03:48:43.292Z,1.70
2023-03-12T03:51:11.047Z,1.60
2023-03-12T03:53:41.256Z,1.30
2023-03-12T03:56:11.155Z,2.10
2023-03-12T03:58:39.727Z,1.80
2023-03-12T04:01:07.287Z,1.90
2023-03-12T04:03:35.245Z,1.40
2023-03-12T04:06:06.250Z,2.30
2023-03-12T04:08:37.215Z,2.80
2023-03-12T04:11:10.876Z,2.30
2023-03-12T04:13:38.118Z,2.40
2023-03-12T04:16:11.984Z,2.70
2023-03-12T04:18:42.639Z,1.90
2023-03-12T04:21:10.787Z,2.70
2023-03-12T04:23:39.515Z,2.30
2023-03-12T04:26:07.601Z,2.30
2023-03-12T04:28:36.509Z,1.70
2023-03-12T04:31:06.615Z,3.20
2023-03-12T04:33:39.443Z,2.50
2023-03-12T04:36:08.694Z,2.70
2023-03-12T04:38:37.537Z,2.30
2023-03-12T04:41:14.811Z,2.30
2023-03-12T04:43:48.213Z,2.50
2023-03-12T04:46:15.840Z,3.20
2023-03-12T04:48:46.341Z,2.20
2023-03-12T04:51:13.869Z,2.60
2023-03-12T04:53:43.324Z,3.70
2023-03-12T04:56:11.320Z,3.10
2023-03-12T04:58:39.100Z,2.50
2023-03-12T05:01:06.829Z,4.70
2023-03-12T05:03:35.296Z,1.70
2023-03-12T05:06:05.345Z,2.40
2023-03-12T05:08:42.335Z,2.50
2023-03-12T05:11:09.307Z,3.30
2023-03-12T05:13:36.473Z,2.50
2023-03-12T05:16:03.650Z,1.90
2023-03-12T05:18:34.662Z,3.20
2023-03-12T05:21:03.517Z,1.80
2023-03-12T05:25:58.552Z,1.60
2023-03-12T05:28:28.583Z,3.50
2023-03-12T05:30:58.667Z,2.00
2023-03-12T05:33:27.782Z,2.70
2023-03-12T05:35:55.071Z,2.90
2023-03-12T05:38:23.262Z,3.30
2023-03-12T05:40:54.495Z,1.00
2023-03-12T05:43:21.851Z,1.30
2023-03-12T05:45:49.788Z,1.30
2023-03-12T05:48:16.862Z,1.10
2023-03-12T05:50:44.112Z,1.70
2023-03-12T05:53:11.773Z,1.20
2023-03-12T05:55:40.032Z,2.20
2023-03-12T05:58:07.586Z,1.10
2023-03-12T06:00:38.095Z,1.90
2023-03-12T06:03:05.830Z,2.20
2023-03-12T06:05:34.699Z,1.90
2023-03-12T06:08:02.328Z,0.80
2023-03-12T06:10:30.732Z,1.20
2023-03-12T06:12:58.269Z,0.60
2023-03-12T06:15:27.978Z,0.80
2023-03-12T06:17:56.306Z,1.70
2023-03-12T06:20:23.769Z,1.30
2023-03-12T06:22:51.009Z,1.30
2023-03-12T06:25:18.045Z,1.30
2023-03-12T06:27:44.940Z,0.90
2023-03-12T06:30:12.841Z,1.30
2023-03-12T06:32:39.725Z,1.20
2023-03-12T06:35:08.898Z,1.70
2023-03-12T06:37:36.807Z,0.40
2023-03-12T06:40:05.049Z,1.10
2023-03-12T06:42:32.354Z,1.00
2023-03-12T06:44:59.531Z,1.10
2023-03-12T06:47:27.175Z,1.20
2023-03-12T06:49:53.939Z,0.70
2023-03-12T06:52:27.438Z,1.60
2023-03-12T06:54:54.901Z,0.60
2023-03-12T06:57:22.045Z,0.90
2023-03-12T06:59:50.635Z,1.10
2023-03-12T07:02:18.004Z,1.30
2023-03-12T07:04:47.810Z,1.80
2023-03-12T07:07:17.275Z,1.20
2023-03-12T07:09:47.023Z,1.90
2023-03-12T07:12:15.890Z,1.20
2023-03-12T07:14:42.855Z,1.40
2023-03-12T07:17:15.433Z,1.60
2023-03-12T07:19:43.343Z,1.50
2023-03-12T07:22:10.181Z,1.80
2023-03-12T07:24:37.176Z,1.40
2023-03-12T07:27:04.221Z,2.20
2023-03-12T07:29:31.286Z,1.40
2023-03-12T07:31:58.460Z,2.40
2023-03-12T07:34:25.591Z,1.60
2023-03-12T07:36:58.838Z,0.60
2023-03-12T07:39:26.264Z,1.00
2023-03-12T07:41:53.101Z,0.90
2023-03-12T07:44:20.160Z,1.70
2023-03-12T07:46:47.243Z,0.50
2023-03-12T07:49:15.295Z,0.60
2023-03-12T07:51:42.519Z,1.70
2023-03-12T07:54:13.267Z,0.60
2023-03-12T07:56:42.273Z,1.80
2023-03-12T07:59:09.258Z,0.90
2023-03-12T08:01:38.790Z,1.20
2023-03-12T08:04:06.341Z,0.70
2023-03-12T08:06:33.672Z,2.10
2023-03-12T08:09:00.723Z,2.00
2023-03-12T08:11:28.473Z,1.00
2023-03-12T08:13:56.557Z,0.40
2023-03-12T08:16:23.425Z,1.20
2023-03-12T08:18:53.869Z,0.40
2023-03-12T08:21:20.852Z,1.20
2023-03-12T08:23:47.784Z,1.10
2023-03-12T08:26:14.827Z,1.70
2023-03-12T08:28:42.424Z,1.50
2023-03-12T08:31:09.713Z,1.10
2023-03-12T08:33:43.622Z,0.90
2023-03-12T08:36:10.845Z,0.50
2023-03-12T08:38:37.670Z,1.00
2023-03-12T08:41:04.635Z,1.10
2023-03-12T08:43:31.600Z,2.30
2023-03-12T08:46:00.827Z,0.70
2023-03-12T08:48:28.614Z,0.50
2023-03-12T08:50:57.134Z,0.90
2023-03-12T08:53:27.262Z,1.00
2023-03-12T08:55:57.239Z,1.10
2023-03-12T08:58:25.124Z,1.00
2023-03-12T09:00:52.732Z,0.30
2023-03-12T09:03:21.649Z,1.00
2023-03-12T09:05:49.458Z,0.90
2023-03-12T09:08:23.382Z,1.30
2023-03-12T09:10:50.357Z,0.70
2023-03-12T09:13:17.182Z,0.90
2023-03-12T09:15:50.380Z,1.80
2023-03-12T09:18:17.542Z,2.00
2023-03-12T09:20:44.259Z,1.60
2023-03-12T09:23:11.306Z,2.10
2023-03-12T09:25:39.598Z,1.10
2023-03-12T09:28:08.295Z,3.00
2023-03-12T09:30:35.821Z,3.90
2023-03-12T09:33:03.256Z,1.00
2023-03-12T09:35:31.670Z,1.10
2023-03-12T09:37:59.422Z,1.40
2023-03-12T09:40:30.697Z,1.30
2023-03-12T09:42:59.185Z,3.00
2023-03-12T09:45:27.995Z,1.30
2023-03-12T09:47:57.513Z,1.60
2023-03-12T09:50:35.232Z,1.90
2023-03-12T09:53:04.706Z,1.70
2023-03-12T09:55:39.850Z,2.30
2023-03-12T09:58:17.390Z,1.90
2023-03-12T10:00:47.170Z,1.10
2023-03-12T10:03:26.572Z,2.90
2023-03-12T10:06:35.730Z,4.70
2023-03-12T10:09:29.525Z,2.10
2023-03-12T10:12:27.094Z,1.80
2023-03-12T10:15:01.586Z,1.90
2023-03-12T10:18:02.927Z,1.90
2023-03-12T10:20:51.951Z,1.60
2023-03-12T10:23:30.756Z,1.50
2023-03-12T10:26:08.211Z,1.50
2023-03-12T10:28:40.907Z,3.20
2023-03-12T10:31:14.472Z,2.20
2023-03-12T10:33:48.266Z,2.90
2023-03-12T10:36:20.887Z,2.20
2023-03-12T10:38:49.490Z,1.10
2023-03-12T10:41:22.465Z,1.70
2023-03-12T10:43:50.342Z,1.60
2023-03-12T10:46:39.800Z,1.70
2023-03-12T10:49:22.062Z,3.00
2023-03-12T10:52:00.138Z,0.70
2023-03-12T10:54:32.261Z,1.50
2023-03-12T10:56:59.739Z,1.90
2023-03-12T10:59:32.165Z,3.20
2023-03-12T11:01:59.564Z,2.20
2023-03-12T11:04:30.406Z,1.10
2023-03-12T11:07:26.958Z,1.00
2023-03-12T11:10:06.056Z,1.50
2023-03-12T11:13:11.846Z,3.10
2023-03-12T11:15:42.905Z,1.10
2023-03-12T11:18:35.972Z,1.60
2023-03-12T11:21:09.330Z,1.80
2023-03-12T11:23:43.311Z,1.90
2023-03-12T11:26:22.275Z,1.90
2023-03-12T11:29:01.332Z,1.40
2023-03-12T11:31:31.408Z,1.90
2023-03-12T11:34:03.786Z,1.70
2023-03-12T11:36:46.641Z,1.90
2023-03-12T11:39:25.569Z,4.20
2023-03-12T11:42:06.970Z,1.40
2023-03-12T11:44:58.611Z,2.90
2023-03-12T11:47:35.544Z,2.20
2023-03-12T11:50:16.909Z,3.50
2023-03-12T11:52:59.043Z,2.10
2023-03-12T11:55:43.639Z,2.30
2023-03-12T11:58:24.807Z,2.50
2023-03-12T12:01:21.259Z,2.00
2023-03-12T12:04:14.018Z,2.50
2023-03-12T12:06:50.853Z,2.60
2023-03-12T12:09:33.765Z,3.80
2023-03-12T12:12:19.367Z,2.00
2023-03-12T12:15:04.112Z,2.30
2023-03-12T12:17:59.581Z,2.10
2023-03-12T12:20:48.597Z,2.80
2023-03-12T12:23:25.390Z,3.20
2023-03-12T12:26:24.561Z,2.40
2023-03-12T12:28:54.589Z,2.80
2023-03-12T12:31:44.885Z,3.70
2023-03-12T12:34:19.902Z,3.10
2023-03-12T12:36:50.235Z,2.70
2023-03-12T12:39:35.602Z,3.10
2023-03-12T12:42:05.309Z,3.00
2023-03-12T12:44:39.522Z,2.60
2023-03-12T12:47:07.128Z,2.80
2023-03-12T12:49:52.448Z,2.70
2023-03-12T12:52:21.672Z,3.70
2023-03-12T12:55:12.977Z,3.80
2023-03-12T12:57:47.586Z,3.60
2023-03-12T13:00:39.395Z,4.50
2023-03-12T13:03:12.470Z,4.10
2023-03-12T13:05:57.542Z,4.50
2023-03-12T13:08:42.321Z,3.80
2023-03-12T13:11:20.093Z,4.40
2023-03-12T13:14:06.485Z,5.30
2023-03-12T13:16:34.628Z,6.50
2023-03-12T13:19:28.411Z,5.90
2023-03-12T13:21:58.400Z,4.60
2023-03-12T13:24:37.731Z,5.20
2023-03-12T13:27:25.344Z,5.00
2023-03-12T13:29:57.434Z,4.20
2023-03-12T13:32:36.998Z,5.40
2023-03-12T13:35:16.513Z,5.60
2023-03-12T13:45:26.877Z,5.60
2023-03-12T13:47:57.072Z,4.80
2023-03-12T13:50:24.034Z,6.80
2023-03-12T13:53:02.220Z,4.50
2023-03-12T13:55:30.900Z,5.00
2023-03-12T13:58:00.579Z,5.80
2023-03-12T14:00:31.483Z,3.70
2023-03-12T14:03:02.185Z,5.20
2023-03-12T14:05:36.067Z,5.60
2023-03-12T14:08:03.052Z,4.60
2023-03-12T14:11:00.749Z,5.70
2023-03-12T14:13:48.950Z,7.30
2023-03-12T14:16:27.121Z,4.30
2023-03-12T14:18:58.263Z,4.40
2023-03-12T14:21:35.914Z,5.00
2023-03-12T14:24:02.761Z,6.10
2023-03-12T14:26:33.029Z,4.90
2023-03-12T14:29:11.224Z,4.80
2023-03-12T14:31:38.406Z,5.00
2023-03-12T14:34:20.840Z,4.50
2023-03-12T14:37:24.601Z,4.20
2023-03-12T14:40:02.615Z,5.00
2023-03-12T14:42:33.898Z,5.70
2023-03-12T14:45:35.004Z,4.10
2023-03-12T14:48:02.130Z,3.60
2023-03-12T14:50:31.192Z,4.20
2023-03-12T14:53:23.664Z,4.80
2023-03-12T14:56:12.575Z,5.10
2023-03-12T14:58:44.936Z,3.80
2023-03-12T15:01:13.944Z,6.00
2023-03-12T15:03:49.474Z,4.20
2023-03-12T15:06:40.245Z,4.60
2023-03-12T15:09:09.328Z,4.60
2023-03-12T15:11:38.550Z,4.10
2023-03-12T15:14:12.127Z,3.50
2023-03-12T15:16:39.074Z,5.60
2023-03-12T15:19:05.909Z,3.90
2023-03-12T15:21:34.935Z,5.30
2023-03-12T15:24:04.132Z,4.70
2023-03-12T15:26:33.235Z,3.70
2023-03-12T15:31:28.425Z,3.70
2023-03-12T15:34:06.241Z,6.40
2023-03-12T15:36:34.386Z,4.80
2023-03-12T15:39:13.647Z,4.80
2023-03-12T15:41:48.911Z,5.90
2023-03-12T15:44:23.751Z,4.40
2023-03-12T15:46:53.192Z,3.90
2023-03-12T15:49:26.075Z,6.70
2023-03-12T15:52:06.534Z,5.00
2023-03-12T15:54:35.483Z,4.00
2023-03-12T15:57:16.006Z,3.50
2023-03-12T16:00:16.394Z,3.70
2023-03-12T16:02:47.868Z,1.80
2023-03-12T16:05:14.952Z,2.50
2023-03-12T16:07:44.929Z,2.40
2023-03-12T16:10:16.489Z,0.60
2023-03-12T16:12:44.132Z,1.10
2023-03-12T16:15:21.613Z,0.50
2023-03-12T16:17:50.527Z,0.90
2023-03-12T16:20:18.038Z,1.70
2023-03-12T16:22:45.798Z,0.30
2023-03-12T16:25:13.612Z,2.50
2023-03-12T16:27:51.700Z,1.40
2023-03-12T16:30:23.292Z,1.60
2023-03-12T16:32:50.240Z,1.30
2023-03-12T16:35:18.824Z,1.10
2023-03-12T16:37:46.494Z,1.50
2023-03-12T16:40:23.930Z,1.30
2023-03-12T16:43:04.120Z,1.60
2023-03-12T16:45:31.956Z,0.80
2023-03-12T16:48:02.090Z,1.90
2023-03-12T16:50:29.928Z,1.50
2023-03-12T16:52:57.714Z,1.50
2023-03-12T16:55:29.819Z,1.90
2023-03-12T16:57:59.350Z,1.40
2023-03-12T17:00:28.924Z,4.60
2023-03-12T17:02:58.053Z,1.40
2023-03-12T17:05:28.717Z,1.70
2023-03-12T17:07:56.125Z,2.60
2023-03-12T17:10:26.083Z,1.00
2023-03-12T17:12:53.344Z,1.70
2023-03-12T17:15:26.198Z,1.60
2023-03-12T17:17:55.888Z,1.80
2023-03-12T17:20:24.636Z,2.50
2023-03-12T17:22:51.412Z,2.40
2023-03-12T17:25:29.556Z,2.30
2023-03-12T17:27:57.539Z,2.00
2023-03-12T17:30:26.131Z,2.90
2023-03-12T17:32:53.528Z,1.30
2023-03-12T17:35:20.484Z,1.80
2023-03-12T17:37:48.656Z,2.90
2023-03-12T17:40:15.684Z,2.30
2023-03-12T17:42:46.175Z,3.50
2023-03-12T17:45:13.687Z,4.30
2023-03-12T17:47:41.247Z,1.90
2023-03-12T17:50:09.249Z,2.60
2023-03-12T17:52:36.088Z,3.60
2023-03-12T17:55:06.394Z,1.30
2023-03-12T17:57:33.375Z,2.80
2023-03-12T18:00:00.426Z,1.60
2023-03-12T18:02:27.630Z,3.00
2023-03-12T18:04:54.569Z,2.10
2023-03-12T18:07:22.154Z,2.70
2023-03-12T18:09:50.315Z,3.80
2023-03-12T18:12:22.573Z,3.90
2023-03-12T18:14:49.406Z,3.50
2023-03-12T18:17:16.502Z,3.50
2023-03-12T18:19:50.588Z,3.00
2023-03-12T18:22:19.781Z,4.60
2023-03-12T18:24:46.886Z,7.00
2023-03-12T18:27:13.988Z,7.00
2023-03-12T18:29:42.737Z,4.40
2023-03-12T18:32:09.795Z,3.30
2023-03-12T18:34:41.349Z,2.10
2023-03-12T18:37:08.745Z,2.80
2023-03-12T18:39:35.869Z,2.80
2023-03-12T18:42:02.759Z,2.30
2023-03-12T18:44:37.236Z,1.80
2023-03-12T18:47:04.281Z,2.60
2023-03-12T18:49:31.564Z,4.00
2023-03-12T18:51:59.514Z,1.90
2023-03-12T18:54:26.579Z,3.00
2023-03-12T18:56:58.200Z,2.00
2023-03-12T18:59:25.430Z,1.80
2023-03-12T19:01:52.413Z,2.10
2023-03-12T19:04:19.571Z,3.30
2023-03-12T19:06:51.252Z,3.50
2023-03-12T19:09:19.282Z,1.90
2023-03-12T19:19:27.442Z,3.30
2023-03-12T19:21:57.255Z,2.30
2023-03-12T19:24:24.819Z,2.70
2023-03-12T19:26:53.889Z,3.90
2023-03-12T19:29:20.936Z,2.30
2023-03-12T19:31:47.944Z,3.50
2023-03-12T19:34:15.855Z,2.20
2023-03-12T19:36:45.327Z,2.60
2023-03-12T19:39:21.145Z,3.60
2023-03-12T19:41:50.614Z,1.40
2023-03-12T19:44:17.598Z,2.40
2023-03-12T19:46:44.450Z,1.50
2023-03-12T19:49:11.994Z,1.80
2023-03-12T19:51:40.507Z,1.70
2023-03-12T19:54:08.499Z,3.40
2023-03-12T20:04:16.428Z,0.50
2023-03-12T20:06:44.367Z,0.60
2023-03-12T20:09:11.467Z,1.30
2023-03-12T20:11:38.532Z,1.40
2023-03-12T20:14:06.069Z,1.00
2023-03-12T20:16:33.119Z,0.60
2023-03-12T20:19:00.472Z,0.60
2023-03-12T20:21:29.549Z,0.80
2023-03-12T20:23:57.733Z,0.20
2023-03-12T20:26:24.967Z,1.00
2023-03-12T20:28:52.387Z,0.60
2023-03-12T20:31:20.760Z,0.80
2023-03-12T20:33:47.945Z,1.20
2023-03-12T20:36:15.205Z,0.40
2023-03-12T20:38:43.089Z,0.70
2023-03-12T20:41:12.196Z,3.30
2023-03-12T20:43:45.461Z,0.70
2023-03-12T20:46:14.748Z,0.30
2023-03-12T20:48:43.360Z,1.70
2023-03-12T20:51:10.919Z,2.10
2023-03-12T20:53:38.853Z,0.70
2023-03-12T20:56:07.119Z,1.20
2023-03-12T21:06:16.954Z,1.30
2023-03-12T21:08:43.951Z,1.40
2023-03-12T21:11:10.746Z,1.20
2023-03-12T21:13:38.550Z,0.40
2023-03-12T21:16:07.202Z,0.50
2023-03-12T21:18:34.288Z,1.10
2023-03-12T21:21:05.523Z,0.30
2023-03-12T21:23:33.029Z,1.90
2023-03-12T21:26:07.865Z,0.30
2023-03-12T21:28:38.506Z,1.00
2023-03-12T21:31:08.169Z,0.20
2023-03-12T21:33:35.334Z,1.50
2023-03-12T21:36:10.209Z,0.60
2023-03-12T21:38:38.647Z,0.60
2023-03-12T21:41:10.144Z,1.00
2023-03-12T21:43:37.011Z,0.90
2023-03-12T21:46:08.744Z,1.00
2023-03-12T21:48:36.229Z,0.80
2023-03-12T21:51:05.717Z,0.30
2023-03-12T21:53:34.701Z,0.90
2023-03-12T21:56:01.773Z,1.40
2023-03-12T21:58:30.526Z,2.30
2023-03-12T22:01:04.366Z,0.20
2023-03-12T22:03:31.501Z,3.10
2023-03-12T22:05:58.614Z,0.80
2023-03-12T22:08:25.446Z,0.50
2023-03-12T22:10:52.720Z,2.30
2023-03-12T22:13:19.668Z,0.60
2023-03-12T22:15:54.270Z,1.70
2023-03-12T22:18:21.935Z,2.70
2023-03-12T22:28:32.168Z,1.70
2023-03-12T22:31:03.207Z,0.80
2023-03-12T22:33:30.297Z,0.60
2023-03-12T22:35:57.255Z,1.10
2023-03-12T22:38:24.422Z,0.90
2023-03-12T22:40:55.060Z,0.70
2023-03-12T22:43:25.960Z,1.90
2023-03-12T22:45:54.042Z,0.70
2023-03-12T22:50:54.166Z,1.40
2023-03-12T22:53:21.545Z,1.40
2023-03-12T22:55:56.995Z,0.40
2023-03-12T23:01:07.784Z,0.40
2023-03-12T23:03:35.419Z,0.30
2023-03-12T23:06:02.588Z,0.60
2023-03-12T23:08:29.925Z,1.80
2023-03-12T23:11:03.235Z,0.90
2023-03-12T23:13:33.125Z,1.20
2023-03-12T23:16:08.209Z,0.50
2023-03-12T23:18:40.458Z,1.50
2023-03-12T23:21:09.509Z,0.70
2023-03-12T23:23:37.577Z,1.30
2023-03-12T23:26:05.003Z,0.90
2023-03-12T23:28:32.603Z,2.10
2023-03-12T23:31:05.463Z,2.40
2023-03-12T23:33:33.643Z,1.40
2023-03-12T23:36:08.999Z,0.50
2023-03-12T23:38:37.622Z,0.90
2023-03-12T23:41:11.959Z,2.70
2023-03-12T23:43:39.702Z,2.20
2023-03-12T23:46:07.379Z,1.60
2023-03-12T23:48:36.354Z,1.10
2023-03-12T23:51:10.947Z,2.50
2023-03-12T23:53:38.903Z,1.30
2023-03-12T23:56:08.703Z,1.00
2023-03-12T23:58:36.103Z,2.00
